N700PB KSAN-KBOI
Flight info
| Callsign | N700PB |
|---|---|
| Flight time | N/A |
| Altitude | 43000 |
| Route | PADRZ2 EHF BETBE/N0485F410 PRNCS SADYL4 |
| Aircraft | C700/M-SBDGHM1RWXY/LB2 |
Departure
| Time | 2026-04-26 21:02 |
|---|---|
| Airport | San Diego International Airport (KSAN) |
Arrival
| Time | N/A |
|---|---|
| Airport | Boise Air Terminal/Gowen Field (KBOI) |
| Time | Latitude | Longitude | Altitude | Speed | Heading |
|---|---|---|---|---|---|
| 2026-04-26 20:45 | 32.73507 | -117.18769 | 16 ft | 0 kts | 15° |
| 2026-04-26 20:55 | 32.73511 | -117.18763 | 18 ft | 4 kts | 60° |
| 2026-04-26 20:55 | 32.73493 | -117.18746 | 17 ft | 4 kts | 149° |
| 2026-04-26 20:55 | 32.73453 | -117.18744 | 16 ft | 7 kts | 186° |
| 2026-04-26 20:56 | 32.73413 | -117.18773 | 17 ft | 7 kts | 212° |
| 2026-04-26 20:56 | 32.73390 | -117.18796 | 16 ft | 3 kts | 197° |
| 2026-04-26 20:56 | 32.73351 | -117.18676 | 17 ft | 30 kts | 95° |
| 2026-04-26 20:56 | 32.73336 | -117.18412 | 19 ft | 24 kts | 102° |
| 2026-04-26 20:57 | 32.73285 | -117.18218 | 20 ft | 25 kts | 105° |
| 2026-04-26 20:57 | 32.73244 | -117.18011 | 17 ft | 26 kts | 106° |
| 2026-04-26 20:57 | 32.73188 | -117.17797 | 17 ft | 27 kts | 108° |
| 2026-04-26 20:57 | 32.73140 | -117.17604 | 17 ft | 20 kts | 110° |
| 2026-04-26 20:58 | 32.73070 | -117.17538 | 18 ft | 0 kts | 191° |
| 2026-04-26 21:00 | 32.73068 | -117.17539 | 17 ft | 5 kts | 195° |
| 2026-04-26 21:00 | 32.73033 | -117.17615 | 16 ft | 14 kts | 275° |
| 2026-04-26 21:01 | 32.73055 | -117.17751 | 15 ft | 19 kts | 285° |
| 2026-04-26 21:01 | 32.73122 | -117.18004 | 13 ft | 49 kts | 287° |
| 2026-04-26 21:01 | 32.73261 | -117.18578 | 19 ft | 102 kts | 285° |
| 2026-04-26 21:01 | 32.73518 | -117.19644 | 35 ft | 164 kts | 286° |
| 2026-04-26 21:02 | 32.73856 | -117.21053 | 744 ft | 178 kts | 287° |
| 2026-04-26 21:02 | 32.74310 | -117.22420 | 1733 ft | 178 kts | 306° |
| 2026-04-26 21:02 | 32.75131 | -117.23497 | 2678 ft | 174 kts | 309° |
| 2026-04-26 21:02 | 32.75873 | -117.24696 | 3243 ft | 194 kts | 302° |
| 2026-04-26 21:03 | 32.76627 | -117.26062 | 4003 ft | 197 kts | 302° |
| 2026-04-26 21:03 | 32.77405 | -117.27399 | 4875 ft | 198 kts | 303° |
| 2026-04-26 21:03 | 32.78183 | -117.28763 | 5711 ft | 199 kts | 302° |
| 2026-04-26 21:03 | 32.78963 | -117.30127 | 6538 ft | 200 kts | 302° |
| 2026-04-26 21:04 | 32.79745 | -117.31499 | 7305 ft | 201 kts | 302° |
| 2026-04-26 21:04 | 32.80596 | -117.32833 | 8015 ft | 207 kts | 305° |
| 2026-04-26 21:04 | 32.81500 | -117.34216 | 8074 ft | 208 kts | 305° |
| 2026-04-26 21:04 | 32.82362 | -117.35552 | 8076 ft | 202 kts | 304° |
| 2026-04-26 21:05 | 32.83224 | -117.36897 | 8068 ft | 205 kts | 304° |
| 2026-04-26 21:05 | 32.84091 | -117.38240 | 8066 ft | 204 kts | 304° |
| 2026-04-26 21:05 | 32.84955 | -117.39583 | 8064 ft | 203 kts | 305° |
| 2026-04-26 21:05 | 32.85816 | -117.40913 | 8062 ft | 203 kts | 304° |
| 2026-04-26 21:06 | 32.86671 | -117.42244 | 8057 ft | 203 kts | 304° |
| 2026-04-26 21:06 | 32.87521 | -117.43562 | 8056 ft | 204 kts | 304° |
| 2026-04-26 21:06 | 32.88386 | -117.44907 | 8057 ft | 205 kts | 304° |
| 2026-04-26 21:06 | 32.89255 | -117.46257 | 8057 ft | 206 kts | 304° |
| 2026-04-26 21:07 | 32.90125 | -117.47609 | 8056 ft | 205 kts | 304° |
| 2026-04-26 21:07 | 32.90987 | -117.48947 | 8053 ft | 203 kts | 304° |
| 2026-04-26 21:07 | 32.91846 | -117.50284 | 8051 ft | 203 kts | 304° |
| 2026-04-26 21:07 | 32.92708 | -117.51628 | 8050 ft | 205 kts | 304° |
| 2026-04-26 21:08 | 32.93579 | -117.52978 | 8053 ft | 205 kts | 304° |
| 2026-04-26 21:08 | 32.94442 | -117.54329 | 8051 ft | 204 kts | 304° |
| 2026-04-26 21:08 | 32.95305 | -117.55669 | 8051 ft | 204 kts | 304° |
| 2026-04-26 21:08 | 32.96163 | -117.57010 | 8050 ft | 203 kts | 304° |
| 2026-04-26 21:09 | 32.97022 | -117.58346 | 8048 ft | 203 kts | 304° |
| 2026-04-26 21:09 | 32.97875 | -117.59682 | 8048 ft | 203 kts | 304° |
| 2026-04-26 21:09 | 32.98737 | -117.61023 | 8049 ft | 204 kts | 304° |
| 2026-04-26 21:09 | 32.99601 | -117.62375 | 8049 ft | 206 kts | 304° |
| 2026-04-26 21:10 | 33.00471 | -117.63731 | 8049 ft | 206 kts | 304° |
| 2026-04-26 21:10 | 33.01334 | -117.65080 | 8047 ft | 204 kts | 304° |
| 2026-04-26 21:10 | 33.02191 | -117.66421 | 8048 ft | 203 kts | 304° |
| 2026-04-26 21:10 | 33.03050 | -117.67762 | 8044 ft | 204 kts | 304° |
| 2026-04-26 21:11 | 33.03919 | -117.69127 | 8284 ft | 209 kts | 304° |
| 2026-04-26 21:11 | 33.04808 | -117.70514 | 9317 ft | 220 kts | 304° |
| 2026-04-26 21:11 | 33.05788 | -117.72059 | 10050 ft | 247 kts | 304° |
| 2026-04-26 21:11 | 33.07025 | -117.73647 | 10738 ft | 278 kts | 316° |
| 2026-04-26 21:12 | 33.08557 | -117.75137 | 11737 ft | 291 kts | 316° |
| 2026-04-26 21:12 | 33.10099 | -117.76725 | 13081 ft | 296 kts | 315° |
| 2026-04-26 21:12 | 33.11675 | -117.78350 | 14272 ft | 303 kts | 315° |
| 2026-04-26 21:12 | 33.13298 | -117.79994 | 15403 ft | 309 kts | 315° |
| 2026-04-26 21:13 | 33.14949 | -117.81669 | 16517 ft | 315 kts | 315° |
| 2026-04-26 21:13 | 33.16630 | -117.83382 | 17617 ft | 321 kts | 315° |
| 2026-04-26 21:13 | 33.18343 | -117.85129 | 18632 ft | 327 kts | 315° |
| 2026-04-26 21:13 | 33.20097 | -117.86890 | 19530 ft | 332 kts | 316° |
| 2026-04-26 21:14 | 33.21908 | -117.88640 | 20385 ft | 337 kts | 315° |
| 2026-04-26 21:14 | 33.23737 | -117.90426 | 21202 ft | 342 kts | 315° |
| 2026-04-26 21:14 | 33.25584 | -117.92236 | 22026 ft | 346 kts | 315° |
| 2026-04-26 21:14 | 33.27459 | -117.94066 | 22855 ft | 350 kts | 315° |
| 2026-04-26 21:15 | 33.29359 | -117.95919 | 23659 ft | 355 kts | 314° |
| 2026-04-26 21:15 | 33.31279 | -117.97795 | 24356 ft | 358 kts | 314° |
| 2026-04-26 21:15 | 33.33214 | -117.99687 | 25077 ft | 360 kts | 313° |
| 2026-04-26 21:15 | 33.35163 | -118.01595 | 25762 ft | 363 kts | 313° |
| 2026-04-26 21:16 | 33.37128 | -118.03518 | 26441 ft | 367 kts | 313° |
| 2026-04-26 21:16 | 33.39110 | -118.05460 | 27110 ft | 370 kts | 312° |
| 2026-04-26 21:16 | 33.41110 | -118.07421 | 27772 ft | 373 kts | 312° |
| 2026-04-26 21:16 | 33.43131 | -118.09403 | 28426 ft | 377 kts | 312° |
| 2026-04-26 21:17 | 33.45167 | -118.11401 | 29071 ft | 381 kts | 312° |
| 2026-04-26 21:17 | 33.47222 | -118.13418 | 29709 ft | 384 kts | 311° |
| 2026-04-26 21:17 | 33.48600 | -118.14773 | 30118 ft | 387 kts | 311° |
| 2026-04-26 21:17 | 33.50692 | -118.16829 | 30632 ft | 391 kts | 311° |
| 2026-04-26 21:18 | 33.52806 | -118.18907 | 31149 ft | 394 kts | 311° |
| 2026-04-26 21:18 | 33.54934 | -118.21002 | 31646 ft | 398 kts | 311° |
| 2026-04-26 21:18 | 33.57164 | -118.23025 | 32124 ft | 408 kts | 317° |
| 2026-04-26 21:18 | 33.59654 | -118.24748 | 32598 ft | 420 kts | 323° |
| 2026-04-26 21:19 | 33.62344 | -118.26222 | 33069 ft | 427 kts | 326° |
| 2026-04-26 21:19 | 33.65044 | -118.27706 | 33670 ft | 425 kts | 324° |
| 2026-04-26 21:19 | 33.67725 | -118.29197 | 34279 ft | 424 kts | 324° |
| 2026-04-26 21:19 | 33.70379 | -118.30664 | 34776 ft | 424 kts | 324° |
| 2026-04-26 21:20 | 33.73061 | -118.32138 | 35283 ft | 424 kts | 324° |
| 2026-04-26 21:20 | 33.75742 | -118.33614 | 35800 ft | 422 kts | 324° |
| 2026-04-26 21:20 | 33.78459 | -118.35003 | 36191 ft | 427 kts | 326° |
| 2026-04-26 21:20 | 33.81204 | -118.36374 | 36614 ft | 427 kts | 326° |
| 2026-04-26 21:21 | 33.83943 | -118.37751 | 37071 ft | 426 kts | 326° |
| 2026-04-26 21:21 | 33.86674 | -118.39137 | 37508 ft | 426 kts | 326° |
| 2026-04-26 21:21 | 33.89412 | -118.40523 | 37908 ft | 426 kts | 326° |
| 2026-04-26 21:21 | 33.92144 | -118.41901 | 38320 ft | 426 kts | 326° |
| 2026-04-26 21:22 | 33.94880 | -118.43282 | 38720 ft | 426 kts | 326° |
| 2026-04-26 21:22 | 33.97612 | -118.44660 | 39013 ft | 427 kts | 327° |
| 2026-04-26 21:22 | 34.00482 | -118.45783 | 39278 ft | 439 kts | 334° |
| 2026-04-26 21:23 | 34.06628 | -118.46951 | 39829 ft | 450 kts | 342° |
| 2026-04-26 21:23 | 34.09731 | -118.47431 | 40100 ft | 450 kts | 342° |
| 2026-04-26 21:23 | 34.12833 | -118.47923 | 40354 ft | 450 kts | 342° |
| 2026-04-26 21:23 | 34.15945 | -118.48400 | 40606 ft | 450 kts | 343° |
| 2026-04-26 21:24 | 34.19058 | -118.48869 | 40866 ft | 450 kts | 343° |
| 2026-04-26 21:24 | 34.22171 | -118.49348 | 41108 ft | 450 kts | 343° |
| 2026-04-26 21:24 | 34.25255 | -118.49828 | 41348 ft | 450 kts | 343° |
| 2026-04-26 21:24 | 34.28350 | -118.50305 | 41578 ft | 450 kts | 343° |
| 2026-04-26 21:25 | 34.31459 | -118.50782 | 41830 ft | 450 kts | 343° |
| 2026-04-26 21:25 | 34.34574 | -118.51261 | 42049 ft | 450 kts | 343° |
| 2026-04-26 21:25 | 34.37678 | -118.51743 | 42248 ft | 450 kts | 343° |
| 2026-04-26 21:25 | 34.40788 | -118.52224 | 42466 ft | 450 kts | 343° |
| 2026-04-26 21:26 | 34.43893 | -118.52703 | 42675 ft | 450 kts | 343° |
| 2026-04-26 21:26 | 34.46999 | -118.53183 | 42880 ft | 450 kts | 344° |
| 2026-04-26 21:26 | 34.50108 | -118.53665 | 42982 ft | 452 kts | 344° |
| 2026-04-26 21:26 | 34.53249 | -118.54157 | 42979 ft | 457 kts | 344° |
| 2026-04-26 21:27 | 34.59626 | -118.55143 | 42979 ft | 466 kts | 344° |
| 2026-04-26 21:27 | 34.66115 | -118.56152 | 42979 ft | 475 kts | 345° |
| 2026-04-26 21:28 | 34.72728 | -118.57182 | 42979 ft | 483 kts | 345° |
| 2026-04-26 21:28 | 34.79406 | -118.58221 | 42980 ft | 491 kts | 345° |
| 2026-04-26 21:29 | 34.86228 | -118.59288 | 42993 ft | 498 kts | 345° |
| 2026-04-26 21:29 | 34.93130 | -118.60364 | 43006 ft | 498 kts | 345° |
| 2026-04-26 21:30 | 34.99716 | -118.62362 | 43012 ft | 480 kts | 331° |
| 2026-04-26 21:30 | 35.05474 | -118.66078 | 43010 ft | 464 kts | 318° |
| 2026-04-26 21:31 | 35.10468 | -118.70992 | 43013 ft | 462 kts | 313° |
| 2026-04-26 21:31 | 35.15447 | -118.76015 | 43003 ft | 465 kts | 313° |
| 2026-04-26 21:32 | 35.20414 | -118.81077 | 43007 ft | 463 kts | 313° |
| 2026-04-26 21:32 | 35.25361 | -118.86105 | 43009 ft | 460 kts | 314° |
| 2026-04-26 21:33 | 35.30275 | -118.91121 | 43013 ft | 460 kts | 313° |
| 2026-04-26 21:33 | 35.35211 | -118.96160 | 43015 ft | 463 kts | 314° |
| 2026-04-26 21:34 | 35.40189 | -119.01224 | 43015 ft | 468 kts | 316° |
| 2026-04-26 21:34 | 35.45829 | -119.05284 | 43013 ft | 479 kts | 330° |
| 2026-04-26 21:35 | 35.52292 | -119.07617 | 43018 ft | 491 kts | 344° |
| 2026-04-26 21:35 | 35.59188 | -119.07907 | 43011 ft | 503 kts | 359° |
| 2026-04-26 21:36 | 35.66172 | -119.06752 | 43005 ft | 507 kts | 2° |
| 2026-04-26 21:36 | 35.73180 | -119.05585 | 43011 ft | 509 kts | 2° |
| 2026-04-26 21:37 | 35.80211 | -119.04393 | 43013 ft | 510 kts | 2° |
| 2026-04-26 21:37 | 35.87256 | -119.03208 | 43031 ft | 510 kts | 2° |
| 2026-04-26 21:38 | 35.94269 | -119.02019 | 43035 ft | 508 kts | 2° |
| 2026-04-26 21:38 | 36.01212 | -119.00845 | 43034 ft | 506 kts | 2° |
| 2026-04-26 21:39 | 36.08169 | -118.99664 | 43037 ft | 504 kts | 2° |
| 2026-04-26 21:39 | 36.15142 | -118.98479 | 43033 ft | 506 kts | 2° |
| 2026-04-26 21:40 | 36.22137 | -118.97288 | 43029 ft | 509 kts | 2° |
| 2026-04-26 21:40 | 36.29162 | -118.96089 | 43023 ft | 509 kts | 2° |
| 2026-04-26 21:41 | 36.36158 | -118.94927 | 43019 ft | 505 kts | 1° |
| 2026-04-26 21:41 | 36.43053 | -118.93218 | 43016 ft | 511 kts | 15° |
| 2026-04-26 21:42 | 36.49423 | -118.89167 | 43012 ft | 521 kts | 32° |
| 2026-04-26 21:42 | 36.54744 | -118.82935 | 43009 ft | 531 kts | 50° |
| 2026-04-26 21:43 | 36.58443 | -118.75095 | 43011 ft | 513 kts | 68° |
| 2026-04-26 21:43 | 36.59572 | -118.70917 | 42439 ft | 507 kts | 76° |
| 2026-04-26 21:43 | 36.60208 | -118.66665 | 41611 ft | 508 kts | 85° |
| 2026-04-26 21:44 | 36.60381 | -118.62268 | 40773 ft | 507 kts | 93° |
| 2026-04-26 21:44 | 36.60072 | -118.57902 | 39967 ft | 505 kts | 102° |
| 2026-04-26 21:44 | 36.59298 | -118.53650 | 39132 ft | 503 kts | 110° |
| 2026-04-26 21:44 | 36.58077 | -118.49588 | 38255 ft | 500 kts | 118° |
| 2026-04-26 21:45 | 36.56446 | -118.45800 | 37256 ft | 495 kts | 127° |
| 2026-04-26 21:45 | 36.54446 | -118.42351 | 36286 ft | 489 kts | 135° |
| 2026-04-26 21:45 | 36.52126 | -118.39294 | 35307 ft | 483 kts | 142° |
| 2026-04-26 21:45 | 36.49546 | -118.36673 | 34392 ft | 476 kts | 150° |
| 2026-04-26 21:46 | 36.46749 | -118.34508 | 33335 ft | 470 kts | 157° |
| 2026-04-26 21:46 | 36.43789 | -118.32820 | 32025 ft | 467 kts | 164° |
| 2026-04-26 21:46 | 36.40695 | -118.31612 | 30673 ft | 466 kts | 171° |
| 2026-04-26 21:46 | 36.37509 | -118.30895 | 29238 ft | 466 kts | 178° |
| 2026-04-26 21:47 | 36.34316 | -118.30682 | 28358 ft | 451 kts | 184° |
| 2026-04-26 21:47 | 36.31225 | -118.30936 | 27319 ft | 440 kts | 191° |
| 2026-04-26 21:47 | 36.28245 | -118.31625 | 26364 ft | 430 kts | 198° |
| 2026-04-26 21:47 | 36.25407 | -118.32660 | 25417 ft | 422 kts | 201° |
| 2026-04-26 21:48 | 36.22612 | -118.33714 | 24521 ft | 417 kts | 201° |
| 2026-04-26 21:48 | 36.19849 | -118.34736 | 23654 ft | 412 kts | 201° |
| 2026-04-26 21:48 | 36.17152 | -118.35747 | 22692 ft | 407 kts | 201° |
| 2026-04-26 21:48 | 36.14461 | -118.36762 | 21701 ft | 402 kts | 201° |
| 2026-04-26 21:49 | 36.11806 | -118.37758 | 20757 ft | 396 kts | 200° |
| 2026-04-26 21:49 | 36.09176 | -118.38739 | 19816 ft | 392 kts | 200° |
| 2026-04-26 21:49 | 36.06578 | -118.39708 | 18893 ft | 388 kts | 200° |
| 2026-04-26 21:49 | 36.04012 | -118.40674 | 18020 ft | 383 kts | 200° |
| 2026-04-26 21:50 | 36.01475 | -118.41620 | 17052 ft | 379 kts | 200° |
| 2026-04-26 21:50 | 35.99771 | -118.42255 | 16439 ft | 376 kts | 200° |
| 2026-04-26 21:50 | 35.96477 | -118.43485 | 15273 ft | 370 kts | 200° |
| 2026-04-26 21:50 | 35.94026 | -118.44399 | 14455 ft | 367 kts | 200° |
| 2026-04-26 21:51 | 35.91591 | -118.45305 | 13643 ft | 363 kts | 200° |
| 2026-04-26 21:51 | 35.89177 | -118.46207 | 12701 ft | 361 kts | 201° |
| 2026-04-26 21:51 | 35.86781 | -118.47101 | 12037 ft | 358 kts | 200° |
| 2026-04-26 21:51 | 35.84363 | -118.47997 | 12016 ft | 376 kts | 200° |
| 2026-04-26 21:52 | 35.81834 | -118.48939 | 12026 ft | 379 kts | 200° |
| 2026-04-26 21:52 | 35.79303 | -118.49878 | 12016 ft | 382 kts | 200° |
| 2026-04-26 21:52 | 35.76788 | -118.50810 | 12017 ft | 382 kts | 200° |
| 2026-04-26 21:52 | 35.74249 | -118.51752 | 12014 ft | 381 kts | 200° |
| 2026-04-26 21:53 | 35.71718 | -118.52693 | 12021 ft | 379 kts | 200° |
| 2026-04-26 21:53 | 35.69187 | -118.53630 | 12019 ft | 380 kts | 200° |
| 2026-04-26 21:53 | 35.66650 | -118.54567 | 12024 ft | 380 kts | 200° |
| 2026-04-26 21:53 | 35.64117 | -118.55506 | 12018 ft | 380 kts | 199° |
| 2026-04-26 21:54 | 35.61580 | -118.56444 | 12018 ft | 380 kts | 199° |
| 2026-04-26 21:54 | 35.59045 | -118.57379 | 12021 ft | 381 kts | 199° |
| 2026-04-26 21:54 | 35.56510 | -118.58318 | 12024 ft | 380 kts | 199° |
| 2026-04-26 21:54 | 35.53973 | -118.59252 | 12023 ft | 380 kts | 199° |
| 2026-04-26 21:55 | 35.51437 | -118.60188 | 12013 ft | 381 kts | 199° |
| 2026-04-26 21:55 | 35.48898 | -118.61120 | 12016 ft | 381 kts | 199° |
| 2026-04-26 21:55 | 35.46355 | -118.62059 | 12019 ft | 382 kts | 200° |
| 2026-04-26 21:55 | 35.43813 | -118.62996 | 12022 ft | 380 kts | 200° |
| 2026-04-26 21:56 | 35.41317 | -118.63915 | 12025 ft | 379 kts | 200° |
| 2026-04-26 21:56 | 35.38755 | -118.64853 | 12026 ft | 380 kts | 199° |
| 2026-04-26 21:56 | 35.36218 | -118.65786 | 12011 ft | 380 kts | 199° |
| 2026-04-26 21:56 | 35.33689 | -118.66716 | 12010 ft | 380 kts | 200° |
| 2026-04-26 21:57 | 35.31160 | -118.67644 | 12017 ft | 379 kts | 200° |
| 2026-04-26 21:57 | 35.28631 | -118.68571 | 12016 ft | 379 kts | 199° |
| 2026-04-26 21:57 | 35.26103 | -118.69493 | 12019 ft | 380 kts | 200° |
| 2026-04-26 21:57 | 35.23603 | -118.70413 | 12017 ft | 380 kts | 200° |
| 2026-04-26 21:58 | 35.21068 | -118.71338 | 12013 ft | 380 kts | 200° |
| 2026-04-26 21:58 | 35.18538 | -118.72262 | 12015 ft | 379 kts | 200° |
| 2026-04-26 21:58 | 35.16009 | -118.73188 | 12012 ft | 379 kts | 200° |
| 2026-04-26 21:58 | 35.13481 | -118.74112 | 12006 ft | 379 kts | 200° |
| 2026-04-26 21:59 | 35.10956 | -118.75032 | 12004 ft | 379 kts | 200° |
| 2026-04-26 21:59 | 35.08425 | -118.75956 | 11996 ft | 379 kts | 200° |
| 2026-04-26 21:59 | 35.05898 | -118.76877 | 11999 ft | 378 kts | 200° |
| 2026-04-26 21:59 | 35.03379 | -118.77795 | 11994 ft | 379 kts | 200° |
| 2026-04-26 22:00 | 35.00882 | -118.78704 | 11991 ft | 380 kts | 200° |
| 2026-04-26 22:00 | 34.98347 | -118.79625 | 11984 ft | 380 kts | 199° |
| 2026-04-26 22:00 | 34.95821 | -118.80546 | 11978 ft | 378 kts | 200° |
| 2026-04-26 22:00 | 34.93552 | -118.82029 | 11972 ft | 369 kts | 223° |
| 2026-04-26 22:01 | 34.92072 | -118.84527 | 11965 ft | 364 kts | 249° |
| 2026-04-26 22:01 | 34.91648 | -118.87525 | 11968 ft | 361 kts | 273° |
| 2026-04-26 22:01 | 34.92346 | -118.90439 | 11976 ft | 363 kts | 298° |
| 2026-04-26 22:01 | 34.94038 | -118.92713 | 11967 ft | 368 kts | 323° |
| 2026-04-26 22:02 | 34.96409 | -118.93890 | 11973 ft | 373 kts | 347° |
| 2026-04-26 22:02 | 34.98132 | -118.93934 | 11976 ft | 378 kts | 4° |
| 2026-04-26 22:02 | 35.01419 | -118.92374 | 11984 ft | 385 kts | 27° |
| 2026-04-26 22:02 | 35.03729 | -118.90680 | 11996 ft | 388 kts | 28° |
| 2026-04-26 22:03 | 35.06164 | -118.89350 | 11973 ft | 381 kts | 10° |
| 2026-04-26 22:03 | 35.08738 | -118.89346 | 11965 ft | 358 kts | 344° |
| 2026-04-26 22:03 | 35.10878 | -118.90576 | 11717 ft | 329 kts | 318° |
| 2026-04-26 22:03 | 35.12136 | -118.92711 | 11687 ft | 300 kts | 290° |
| 2026-04-26 22:04 | 35.12294 | -118.95131 | 11666 ft | 279 kts | 259° |
| 2026-04-26 22:04 | 35.11403 | -118.97107 | 11647 ft | 268 kts | 227° |
| 2026-04-26 22:04 | 35.09777 | -118.98085 | 11624 ft | 262 kts | 192° |
| 2026-04-26 22:04 | 35.08002 | -118.97794 | 11568 ft | 258 kts | 164° |
| 2026-04-26 22:05 | 35.06361 | -118.96866 | 11244 ft | 262 kts | 153° |
| 2026-04-26 22:05 | 35.04857 | -118.95611 | 10982 ft | 262 kts | 143° |
| 2026-04-26 22:05 | 35.03699 | -118.93904 | 10694 ft | 266 kts | 113° |
| 2026-04-26 22:05 | 35.03459 | -118.92420 | 10507 ft | 265 kts | 87° |
| 2026-04-26 22:06 | 35.04036 | -118.90347 | 10220 ft | 258 kts | 49° |
| 2026-04-26 22:06 | 35.05441 | -118.89117 | 9922 ft | 248 kts | 16° |
| 2026-04-26 22:06 | 35.07150 | -118.88778 | 9064 ft | 260 kts | 356° |
| 2026-04-26 22:06 | 35.09014 | -118.88761 | 8218 ft | 275 kts | 358° |
| 2026-04-26 22:07 | 35.10934 | -118.88548 | 7814 ft | 275 kts | 4° |
| 2026-04-26 22:07 | 35.12809 | -118.88216 | 7480 ft | 270 kts | 5° |
| 2026-04-26 22:07 | 35.14653 | -118.87935 | 7128 ft | 265 kts | 3° |
| 2026-04-26 22:07 | 35.16478 | -118.87689 | 6776 ft | 262 kts | 3° |
| 2026-04-26 22:08 | 35.18282 | -118.87436 | 6441 ft | 259 kts | 4° |
| 2026-04-26 22:08 | 35.20064 | -118.87177 | 6086 ft | 257 kts | 4° |
| 2026-04-26 22:08 | 35.21830 | -118.86921 | 5747 ft | 254 kts | 4° |
| 2026-04-26 22:08 | 35.23576 | -118.86671 | 5410 ft | 251 kts | 4° |
| 2026-04-26 22:09 | 35.25304 | -118.86509 | 5074 ft | 247 kts | 355° |
| 2026-04-26 22:09 | 35.26906 | -118.86895 | 4757 ft | 221 kts | 340° |
| 2026-04-26 22:09 | 35.28216 | -118.87630 | 4512 ft | 185 kts | 328° |
| 2026-04-26 22:09 | 35.29135 | -118.88460 | 4368 ft | 154 kts | 317° |
| 2026-04-26 22:10 | 35.29873 | -118.89350 | 4170 ft | 143 kts | 314° |
| 2026-04-26 22:10 | 35.30575 | -118.90181 | 3976 ft | 140 kts | 315° |
| 2026-04-26 22:10 | 35.31266 | -118.91010 | 3795 ft | 140 kts | 315° |
| 2026-04-26 22:10 | 35.31959 | -118.91838 | 3614 ft | 140 kts | 314° |
| 2026-04-26 22:11 | 35.32653 | -118.92678 | 3440 ft | 140 kts | 314° |
| 2026-04-26 22:11 | 35.33347 | -118.93510 | 3240 ft | 139 kts | 315° |
| 2026-04-26 22:11 | 35.34042 | -118.94347 | 3060 ft | 140 kts | 314° |
| 2026-04-26 22:11 | 35.34732 | -118.95177 | 2869 ft | 137 kts | 315° |
| 2026-04-26 22:12 | 35.35391 | -118.95969 | 2683 ft | 129 kts | 315° |
| 2026-04-26 22:12 | 35.36022 | -118.96734 | 2514 ft | 127 kts | 315° |
| 2026-04-26 22:12 | 35.36649 | -118.97487 | 2347 ft | 126 kts | 314° |
| 2026-04-26 22:12 | 35.37277 | -118.98244 | 2180 ft | 126 kts | 314° |
| 2026-04-26 22:13 | 35.37908 | -118.99003 | 2012 ft | 126 kts | 315° |
| 2026-04-26 22:13 | 35.38531 | -118.99755 | 1842 ft | 126 kts | 315° |
| 2026-04-26 22:13 | 35.39155 | -119.00509 | 1672 ft | 127 kts | 315° |
| 2026-04-26 22:13 | 35.39778 | -119.01268 | 1493 ft | 128 kts | 316° |
| 2026-04-26 22:14 | 35.40415 | -119.02025 | 1311 ft | 127 kts | 315° |
| 2026-04-26 22:14 | 35.41050 | -119.02798 | 1120 ft | 130 kts | 315° |
| 2026-04-26 22:14 | 35.41688 | -119.03569 | 942 ft | 128 kts | 313° |
| 2026-04-26 22:14 | 35.42314 | -119.04322 | 764 ft | 123 kts | 313° |
| 2026-04-26 22:15 | 35.42930 | -119.05076 | 595 ft | 127 kts | 315° |
| 2026-04-26 22:15 | 35.43536 | -119.05818 | 488 ft | 107 kts | 315° |
| 2026-04-26 22:15 | 35.43986 | -119.06345 | 499 ft | 78 kts | 316° |
| 2026-04-26 22:15 | 35.44213 | -119.06590 | 506 ft | 31 kts | 345° |
| 2026-04-26 22:16 | 35.44306 | -119.06556 | 506 ft | 13 kts | 66° |
| 2026-04-26 22:16 | 35.44263 | -119.06452 | 503 ft | 17 kts | 134° |
| 2026-04-26 22:16 | 35.44171 | -119.06343 | 501 ft | 20 kts | 135° |
| 2026-04-26 22:16 | 35.44064 | -119.06212 | 496 ft | 24 kts | 135° |
| 2026-04-26 22:17 | 35.44005 | -119.06137 | 496 ft | 0 kts | 134° |
| 2026-04-26 22:18 | 35.44002 | -119.06134 | 496 ft | 4 kts | 134° |
| 2026-04-26 22:18 | 35.43929 | -119.06048 | 496 ft | 25 kts | 136° |
| 2026-04-26 22:18 | 35.43774 | -119.05864 | 496 ft | 32 kts | 136° |
| 2026-04-26 22:19 | 35.43609 | -119.05668 | 490 ft | 34 kts | 136° |
| 2026-04-26 22:19 | 35.43435 | -119.05462 | 484 ft | 36 kts | 135° |
| 2026-04-26 22:19 | 35.43371 | -119.05384 | 486 ft | 0 kts | 135° |
| 2026-04-26 22:19 | 35.43341 | -119.05345 | 485 ft | 21 kts | 132° |
| 2026-04-26 22:20 | 35.43191 | -119.05161 | 482 ft | 33 kts | 135° |
| 2026-04-26 22:20 | 35.43026 | -119.04959 | 482 ft | 34 kts | 135° |
| 2026-04-26 22:20 | 35.42856 | -119.04753 | 477 ft | 35 kts | 134° |
| 2026-04-26 22:20 | 35.42709 | -119.04580 | 476 ft | 28 kts | 134° |
| 2026-04-26 22:21 | 35.42570 | -119.04418 | 468 ft | 23 kts | 140° |
| 2026-04-26 22:21 | 35.42530 | -119.04513 | 472 ft | 27 kts | 281° |
| 2026-04-26 22:21 | 35.42521 | -119.04653 | 472 ft | 9 kts | 190° |
| 2026-04-26 22:21 | 35.42367 | -119.04701 | 465 ft | 29 kts | 193° |
| 2026-04-26 22:22 | 35.42249 | -119.04706 | 469 ft | 11 kts | 162° |
| 2026-04-26 22:22 | 35.42281 | -119.04691 | 469 ft | 10 kts | 335° |
| 2026-04-26 22:22 | 35.42428 | -119.04816 | 469 ft | 33 kts | 315° |
| 2026-04-26 22:22 | 35.42585 | -119.05007 | 473 ft | 31 kts | 315° |
| 2026-04-26 22:23 | 35.42735 | -119.05193 | 477 ft | 30 kts | 314° |
| 2026-04-26 22:23 | 35.42870 | -119.05380 | 475 ft | 19 kts | 275° |
| 2026-04-26 22:23 | 35.42827 | -119.05451 | 479 ft | 18 kts | 238° |
| 2026-04-26 22:23 | 35.42874 | -119.05555 | 479 ft | 8 kts | 357° |
| 2026-04-26 22:24 | 35.42875 | -119.05555 | 479 ft | 0 kts | 357° |